createdAt,value
2019-02-03T00:00:25.725Z,4.08
2019-02-03T00:01:25.602Z,4.16
2019-02-03T00:02:25.576Z,4.18
2019-02-03T00:03:25.317Z,4.23
2019-02-03T00:04:25.550Z,4.26
2019-02-03T00:05:25.977Z,4.26
2019-02-03T00:06:25.532Z,4.26
2019-02-03T00:07:25.511Z,4.24
2019-02-03T00:08:25.480Z,4.33
2019-02-03T00:09:25.462Z,4.33
2019-02-03T00:10:25.444Z,4.33
2019-02-03T00:11:25.441Z,4.3
2019-02-03T00:12:25.429Z,4.34
2019-02-03T00:13:25.927Z,4.36
2019-02-03T00:14:25.390Z,4.3
2019-02-03T00:15:25.376Z,4.29
2019-02-03T00:16:25.357Z,4.33
2019-02-03T00:17:25.343Z,4.36
2019-02-03T00:18:25.332Z,4.3
2019-02-03T00:19:25.308Z,4.36
2019-02-03T00:20:25.301Z,4.42
2019-02-03T00:21:25.565Z,4.4
2019-02-03T00:22:25.262Z,4.36
2019-02-03T00:23:25.257Z,4.36
2019-02-03T00:24:25.236Z,4.37
2019-02-03T00:25:25.227Z,4.41
2019-02-03T00:26:25.204Z,4.4
2019-02-03T00:27:25.197Z,4.41
2019-02-03T00:28:25.193Z,4.44
2019-02-03T00:29:25.307Z,4.37
2019-02-03T00:30:25.388Z,4.4
2019-02-03T00:31:25.141Z,4.47
2019-02-03T00:32:25.123Z,4.36
2019-02-03T00:33:25.110Z,4.42
2019-02-03T00:34:25.084Z,4.44
2019-02-03T00:35:25.082Z,4.45
2019-02-03T00:36:25.059Z,4.36
2019-02-03T00:37:25.046Z,4.3
2019-02-03T00:38:30.995Z,4.27
2019-02-03T00:39:25.086Z,4.29
2019-02-03T00:40:25.174Z,4.29
2019-02-03T00:41:24.835Z,4.37
2019-02-03T00:42:24.966Z,4.32
2019-02-03T00:43:24.962Z,4.33
2019-02-03T00:44:24.939Z,4.26
2019-02-03T00:45:24.922Z,4.3
2019-02-03T00:46:25.566Z,4.3
2019-02-03T00:47:24.890Z,4.3
2019-02-03T00:48:24.877Z,4.36
2019-02-03T00:49:24.872Z,4.33
2019-02-03T00:50:24.850Z,4.36
2019-02-03T00:51:24.858Z,4.37
2019-02-03T00:52:24.577Z,4.4
2019-02-03T00:53:24.816Z,4.36
2019-02-03T00:54:25.086Z,4.4
2019-02-03T00:55:24.778Z,4.33
2019-02-03T00:56:24.760Z,4.47
2019-02-03T00:57:24.735Z,4.5
2019-02-03T00:58:24.726Z,4.48
2019-02-03T00:59:24.716Z,4.5
2019-02-03T01:00:24.685Z,4.47
2019-02-03T01:01:24.688Z,4.48
2019-02-03T01:02:24.892Z,4.59
2019-02-03T01:03:26.435Z,4.48
2019-02-03T01:04:24.636Z,4.51
2019-02-03T01:05:24.628Z,4.54
2019-02-03T01:06:24.600Z,4.5
2019-02-03T01:07:32.207Z,4.51
2019-02-03T01:08:24.581Z,4.47
2019-02-03T01:09:24.558Z,4.54
2019-02-03T01:10:24.836Z,4.54
2019-02-03T01:11:24.530Z,4.58
2019-02-03T01:12:24.509Z,4.6
2019-02-03T01:13:24.510Z,4.65
2019-02-03T01:14:24.614Z,4.58
2019-02-03T01:15:24.469Z,4.62
2019-02-03T01:16:24.463Z,4.65
2019-02-03T01:17:24.460Z,4.63
2019-02-03T01:18:24.497Z,4.52
2019-02-03T01:19:24.755Z,4.52
2019-02-03T01:20:24.402Z,4.5
2019-02-03T01:21:24.387Z,4.47
2019-02-03T01:22:24.370Z,4.54
2019-02-03T01:23:24.356Z,4.5
2019-02-03T01:24:24.339Z,4.48
2019-02-03T01:25:24.335Z,4.5
2019-02-03T01:26:24.474Z,4.52
2019-02-03T01:27:24.551Z,4.48
2019-02-03T01:28:24.280Z,4.52
2019-02-03T01:29:24.355Z,4.48
2019-02-03T01:30:24.248Z,4.48
2019-02-03T01:31:24.231Z,4.5
2019-02-03T01:32:24.217Z,4.5
2019-02-03T01:33:24.217Z,4.51
2019-02-03T01:34:24.184Z,4.45
2019-02-03T01:35:24.485Z,4.51
2019-02-03T01:36:24.154Z,4.51
2019-02-03T01:37:24.143Z,4.58
2019-02-03T01:38:24.133Z,4.55
2019-02-03T01:39:24.115Z,4.59
2019-02-03T01:40:24.098Z,4.52
2019-02-03T01:41:24.080Z,4.52
2019-02-03T01:42:24.062Z,4.51
2019-02-03T01:43:24.416Z,4.55
2019-02-03T01:44:25.811Z,4.58
2019-02-03T01:45:24.029Z,4.65
2019-02-03T01:46:24.013Z,4.65
2019-02-03T01:47:23.991Z,4.66
2019-02-03T01:48:23.980Z,4.66
2019-02-03T01:49:23.966Z,4.62
2019-02-03T01:50:23.948Z,4.66
2019-02-03T01:51:24.668Z,4.67
2019-02-03T01:52:23.915Z,4.55
2019-02-03T01:53:23.902Z,4.51
2019-02-03T01:54:23.889Z,4.36
2019-02-03T01:55:23.911Z,4.45
2019-02-03T01:56:23.849Z,4.42
2019-02-03T01:57:23.848Z,4.4
2019-02-03T01:58:23.597Z,4.54
2019-02-03T01:59:24.461Z,4.48
2019-02-03T02:00:23.798Z,4.45
2019-02-03T02:01:23.780Z,4.51
2019-02-03T02:02:23.542Z,4.5
2019-02-03T02:03:23.758Z,4.54
2019-02-03T02:04:23.736Z,4.5
2019-02-03T02:05:23.718Z,4.5
2019-02-03T02:06:23.715Z,4.51
2019-02-03T02:07:24.248Z,4.47
2019-02-03T02:08:23.679Z,4.52
2019-02-03T02:09:23.665Z,4.47
2019-02-03T02:10:23.652Z,4.54
2019-02-03T02:11:23.632Z,4.48
2019-02-03T02:12:23.616Z,4.52
2019-02-03T02:13:23.602Z,4.5
2019-02-03T02:14:23.584Z,4.54
2019-02-03T02:15:24.228Z,4.55
2019-02-03T02:16:23.582Z,4.52
2019-02-03T02:17:23.631Z,4.52
2019-02-03T02:18:23.668Z,4.5
2019-02-03T02:19:23.509Z,4.66
2019-02-03T02:20:23.502Z,4.62
2019-02-03T02:21:23.485Z,4.58
2019-02-03T02:22:23.475Z,4.63
2019-02-03T02:23:23.969Z,4.67
2019-02-03T02:24:23.436Z,4.66
2019-02-03T02:25:23.425Z,4.72
2019-02-03T02:26:23.414Z,4.72
2019-02-03T02:27:23.395Z,4.65
2019-02-03T02:28:23.378Z,4.67
2019-02-03T02:29:23.365Z,4.66
2019-02-03T02:30:23.374Z,4.72
2019-02-03T02:31:23.750Z,4.69
2019-02-03T02:32:23.340Z,4.63
2019-02-03T02:33:23.324Z,4.58
2019-02-03T02:34:23.294Z,4.6
2019-02-03T02:35:23.282Z,4.67
2019-02-03T02:36:23.257Z,4.66
2019-02-03T02:37:23.247Z,4.69
2019-02-03T02:38:23.229Z,4.67
2019-02-03T02:39:23.551Z,4.65
2019-02-03T02:40:23.231Z,4.65
2019-02-03T02:41:23.186Z,4.7
2019-02-03T02:42:23.170Z,4.75
2019-02-03T02:43:23.159Z,4.66
2019-02-03T02:44:23.139Z,4.6
2019-02-03T02:45:23.152Z,4.63
2019-02-03T02:46:23.108Z,4.66
2019-02-03T02:47:23.653Z,4.6
2019-02-03T02:48:23.079Z,4.69
2019-02-03T02:49:23.063Z,4.69
2019-02-03T02:50:23.046Z,4.63
2019-02-03T02:51:23.034Z,4.67
2019-02-03T02:52:23.024Z,4.69
2019-02-03T02:53:23.032Z,4.67
2019-02-03T02:54:22.993Z,4.67
2019-02-03T02:55:23.638Z,4.72
2019-02-03T02:56:22.964Z,4.73
2019-02-03T02:57:22.941Z,4.67
2019-02-03T02:58:22.957Z,4.7
2019-02-03T02:59:22.912Z,4.78
2019-02-03T03:00:22.901Z,4.82
2019-02-03T03:01:22.639Z,4.63
2019-02-03T03:02:22.903Z,4.62
2019-02-03T03:03:23.451Z,4.65
2019-02-03T03:04:22.846Z,4.67
2019-02-03T03:05:22.835Z,4.66
2019-02-03T03:06:22.817Z,4.66
2019-02-03T03:07:22.793Z,4.73
2019-02-03T03:08:24.479Z,4.77
2019-02-03T03:09:22.780Z,4.6
2019-02-03T03:10:22.764Z,4.7
2019-02-03T03:11:23.067Z,4.67
2019-02-03T03:12:22.495Z,4.67
2019-02-03T03:13:22.724Z,4.82
2019-02-03T03:14:22.713Z,4.67
2019-02-03T03:15:22.686Z,4.59
2019-02-03T03:16:22.683Z,4.72
2019-02-03T03:17:22.654Z,4.72
2019-02-03T03:18:22.636Z,4.65
2019-02-03T03:19:22.839Z,4.66
2019-02-03T03:20:22.604Z,4.62
2019-02-03T03:21:22.591Z,4.63
2019-02-03T03:22:22.574Z,4.62
2019-02-03T03:23:22.557Z,4.66
2019-02-03T03:24:22.298Z,4.62
2019-02-03T03:25:22.543Z,4.6
2019-02-03T03:26:22.512Z,4.6
2019-02-03T03:27:22.730Z,4.48
2019-02-03T03:28:22.525Z,4.54
2019-02-03T03:29:22.473Z,4.51
2019-02-03T03:30:22.737Z,4.5
2019-02-03T03:31:22.479Z,4.45
2019-02-03T03:32:22.453Z,4.55
2019-02-03T03:33:22.454Z,4.69
2019-02-03T03:34:22.397Z,4.52
2019-02-03T03:35:22.673Z,4.45
2019-02-03T03:36:22.364Z,4.44
2019-02-03T03:37:22.525Z,4.55
2019-02-03T03:38:34.556Z,4.54
2019-02-03T03:39:22.325Z,4.58
2019-02-03T03:40:22.306Z,4.52
2019-02-03T03:41:22.295Z,4.52
2019-02-03T03:42:22.272Z,4.6
2019-02-03T03:43:22.385Z,4.58
2019-02-03T03:44:22.681Z,4.52
2019-02-03T03:45:22.241Z,4.66
2019-02-03T03:46:22.222Z,4.72
2019-02-03T03:47:22.200Z,4.67
2019-02-03T03:48:22.191Z,4.72
2019-02-03T03:49:22.206Z,4.66
2019-02-03T03:50:21.930Z,4.66
2019-02-03T03:51:22.144Z,4.77
2019-02-03T03:52:22.444Z,4.67
2019-02-03T03:53:22.112Z,4.7
2019-02-03T03:54:22.103Z,4.67
2019-02-03T03:55:22.108Z,4.75
2019-02-03T03:56:21.581Z,4.78
2019-02-03T03:57:22.059Z,4.8
2019-02-03T03:58:22.170Z,4.8
2019-02-03T03:59:22.025Z,4.8
2019-02-03T04:00:22.165Z,4.7
2019-02-03T04:01:21.995Z,4.82
2019-02-03T04:02:21.992Z,4.8
2019-02-03T04:03:21.993Z,4.73
2019-02-03T04:04:21.970Z,4.73
2019-02-03T04:05:21.971Z,4.77
2019-02-03T04:06:21.921Z,4.8
2019-02-03T04:07:21.920Z,4.82
2019-02-03T04:08:22.157Z,4.75
2019-02-03T04:09:21.880Z,4.8
2019-02-03T04:10:21.881Z,4.84
2019-02-03T04:11:21.850Z,4.78
2019-02-03T04:12:21.833Z,4.78
2019-02-03T04:13:21.820Z,4.82
2019-02-03T04:14:21.806Z,4.78
2019-02-03T04:15:21.881Z,4.92
2019-02-03T04:16:22.250Z,4.86
2019-02-03T04:17:21.779Z,4.86
2019-02-03T04:18:21.750Z,4.91
2019-02-03T04:19:21.737Z,4.85
2019-02-03T04:20:21.747Z,4.8
2019-02-03T04:21:21.743Z,4.84
2019-02-03T04:22:21.690Z,4.8
2019-02-03T04:23:21.675Z,4.82
2019-02-03T04:24:22.313Z,4.85
2019-02-03T04:25:21.644Z,4.75
2019-02-03T04:26:21.636Z,4.82
2019-02-03T04:27:21.610Z,4.78
2019-02-03T04:28:21.662Z,4.84
2019-02-03T04:29:21.608Z,4.78
2019-02-03T04:30:21.754Z,4.78
2019-02-03T04:31:21.554Z,4.78
2019-02-03T04:32:22.120Z,4.82
2019-02-03T04:33:21.535Z,4.78
2019-02-03T04:34:21.513Z,4.85
2019-02-03T04:35:21.494Z,4.86
2019-02-03T04:36:21.646Z,4.88
2019-02-03T04:37:21.458Z,4.78
2019-02-03T04:38:21.480Z,4.92
2019-02-03T04:39:21.446Z,4.85
2019-02-03T04:40:22.268Z,4.89
2019-02-03T04:41:21.406Z,4.86
2019-02-03T04:42:21.387Z,4.91
2019-02-03T04:43:21.370Z,4.88
2019-02-03T04:44:21.366Z,4.85
2019-02-03T04:45:25.118Z,4.86
2019-02-03T04:46:21.333Z,4.84
2019-02-03T04:47:21.311Z,4.84
2019-02-03T04:48:21.871Z,4.84
2019-02-03T04:49:21.290Z,4.82
2019-02-03T04:50:21.268Z,4.75
2019-02-03T04:51:21.255Z,4.88
2019-02-03T04:52:21.245Z,4.77
2019-02-03T04:53:21.235Z,4.78
2019-02-03T04:54:21.230Z,4.78
2019-02-03T04:55:21.197Z,4.77
2019-02-03T04:56:21.675Z,4.75
2019-02-03T04:57:21.173Z,4.82
2019-02-03T04:58:21.161Z,4.78
2019-02-03T04:59:21.143Z,4.86
2019-02-03T05:00:21.135Z,4.91
2019-02-03T05:01:21.108Z,4.91
2019-02-03T05:02:21.088Z,4.89
2019-02-03T05:03:21.074Z,4.99
2019-02-03T05:04:21.699Z,5
2019-02-03T05:05:21.060Z,5
2019-02-03T05:06:21.041Z,4.94
2019-02-03T05:07:21.017Z,5.03
2019-02-03T05:08:21.008Z,4.97
2019-02-03T05:09:20.988Z,4.97
2019-02-03T05:10:20.982Z,5.03
2019-02-03T05:11:20.953Z,5.03
2019-02-03T05:12:21.536Z,5.04
2019-02-03T05:13:20.929Z,5.03
2019-02-03T05:14:20.927Z,5.09
2019-02-03T05:15:20.913Z,5.04
2019-02-03T05:16:20.883Z,5.13
2019-02-03T05:17:23.837Z,5.12
2019-02-03T05:18:20.861Z,5.09
2019-02-03T05:19:20.844Z,5.1
2019-02-03T05:20:21.440Z,5.04
2019-02-03T05:21:20.815Z,5.04
2019-02-03T05:22:20.793Z,5.12
2019-02-03T05:23:20.785Z,5.13
2019-02-03T05:24:20.780Z,5.2
2019-02-03T05:25:20.813Z,5.15
2019-02-03T05:26:20.748Z,5.09
2019-02-03T05:27:20.736Z,5.13
2019-02-03T05:28:21.393Z,5.18
2019-02-03T05:29:20.697Z,5.09
2019-02-03T05:30:20.694Z,5.03
2019-02-03T05:31:22.418Z,5.09
2019-02-03T05:32:20.414Z,5.13
2019-02-03T05:33:20.672Z,5.09
2019-02-03T05:34:20.626Z,5.04
2019-02-03T05:35:20.623Z,5.15
2019-02-03T05:36:21.199Z,5.1
2019-02-03T05:37:20.592Z,5.13
2019-02-03T05:38:20.570Z,5.18
2019-02-03T05:39:29.938Z,5.2
2019-02-03T05:40:20.541Z,5.09
2019-02-03T05:41:20.527Z,5.17
2019-02-03T05:42:20.511Z,5.09
2019-02-03T05:43:20.504Z,5.07
2019-02-03T05:44:21.055Z,5.13
2019-02-03T05:45:20.489Z,5.17
2019-02-03T05:46:20.478Z,5.18
2019-02-03T05:47:20.434Z,5.13
2019-02-03T05:48:20.690Z,5.07
2019-02-03T05:49:20.405Z,5.09
2019-02-03T05:50:20.385Z,5.03
2019-02-03T05:51:20.142Z,5.03
2019-02-03T05:52:20.943Z,4.99
2019-02-03T05:53:20.339Z,5.04
2019-02-03T05:54:20.331Z,4.99
2019-02-03T05:55:20.335Z,4.96
2019-02-03T05:56:20.302Z,5
2019-02-03T05:57:20.284Z,4.99
2019-02-03T05:58:20.269Z,4.89
2019-02-03T05:59:20.252Z,4.88
2019-02-03T06:00:20.594Z,5
2019-02-03T06:01:20.239Z,4.89
2019-02-03T06:02:20.216Z,4.92
2019-02-03T06:03:20.207Z,4.89
2019-02-03T06:04:19.949Z,4.91
2019-02-03T06:05:20.175Z,4.91
2019-02-03T06:06:20.161Z,4.94
2019-02-03T06:07:20.138Z,4.92
2019-02-03T06:08:20.405Z,4.92
2019-02-03T06:09:20.107Z,4.91
2019-02-03T06:10:20.108Z,5.04
2019-02-03T06:11:20.084Z,4.96
2019-02-03T06:12:20.142Z,4.96
2019-02-03T06:13:20.058Z,5.02
2019-02-03T06:14:20.044Z,4.97
2019-02-03T06:15:20.026Z,4.96
2019-02-03T06:16:20.150Z,4.92
2019-02-03T06:17:19.999Z,4.97
2019-02-03T06:18:19.991Z,4.78
2019-02-03T06:19:19.967Z,4.88
2019-02-03T06:20:19.955Z,4.89
2019-02-03T06:21:19.942Z,4.8
2019-02-03T06:22:19.925Z,4.84
2019-02-03T06:23:19.903Z,4.84
2019-02-03T06:24:20.147Z,4.88
2019-02-03T06:25:20.147Z,4.72
2019-02-03T06:26:19.866Z,4.86
2019-02-03T06:27:19.847Z,4.91
2019-02-03T06:28:19.846Z,4.92
2019-02-03T06:29:19.820Z,4.89
2019-02-03T06:30:19.799Z,4.91
2019-02-03T06:31:19.838Z,4.96
2019-02-03T06:32:19.898Z,4.94
2019-02-03T06:33:20.103Z,4.96
2019-02-03T06:34:19.749Z,4.96
2019-02-03T06:35:19.500Z,4.89
2019-02-03T06:36:19.763Z,5.03
2019-02-03T06:37:19.738Z,5
2019-02-03T06:38:19.689Z,5.03
2019-02-03T06:39:19.678Z,5.03
2019-02-03T06:40:19.666Z,5.06
2019-02-03T06:41:20.155Z,5.07
2019-02-03T06:42:19.642Z,5.06
2019-02-03T06:43:19.625Z,5.03
2019-02-03T06:44:19.602Z,5.06
2019-02-03T06:45:19.595Z,4.99
2019-02-03T06:46:19.571Z,5
2019-02-03T06:47:19.632Z,5.06
2019-02-03T06:48:19.542Z,5.07
2019-02-03T06:49:20.247Z,5.09
2019-02-03T06:50:19.522Z,5.1
2019-02-03T06:51:19.510Z,5.1
2019-02-03T06:52:19.482Z,5.12
2019-02-03T06:53:19.462Z,5.09
2019-02-03T06:54:19.213Z,5.12
2019-02-03T06:55:19.191Z,5.13
2019-02-03T06:56:19.432Z,5.17
2019-02-03T06:57:20.038Z,5.12
2019-02-03T06:58:19.387Z,5.1
2019-02-03T06:59:19.378Z,5.21
2019-02-03T07:00:19.371Z,5.22
2019-02-03T07:01:19.355Z,5.1
2019-02-03T07:02:19.456Z,5.2
2019-02-03T07:03:19.333Z,5.22
2019-02-03T07:04:19.690Z,5.22
2019-02-03T07:05:19.985Z,5.31
2019-02-03T07:06:19.332Z,5.24
2019-02-03T07:07:19.259Z,5.22
2019-02-03T07:08:19.262Z,5.27
2019-02-03T07:09:19.241Z,5.24
2019-02-03T07:10:19.223Z,5.28
2019-02-03T07:11:19.210Z,5.27
2019-02-03T07:12:19.199Z,5.22
2019-02-03T07:13:19.582Z,5.27
2019-02-03T07:14:19.164Z,5.13
2019-02-03T07:15:19.153Z,5.12
2019-02-03T07:16:19.134Z,5.13
2019-02-03T07:17:19.134Z,5.15
2019-02-03T07:18:19.106Z,5.17
2019-02-03T07:19:19.094Z,5.18
2019-02-03T07:20:19.111Z,5.22
2019-02-03T07:21:19.655Z,5.27
2019-02-03T07:22:19.053Z,5.24
2019-02-03T07:23:19.034Z,5.21
2019-02-03T07:24:19.021Z,5.3
2019-02-03T07:25:19.012Z,5.28
2019-02-03T07:26:18.995Z,5.2
2019-02-03T07:27:19.126Z,5.2
2019-02-03T07:28:18.968Z,5.28
2019-02-03T07:29:19.385Z,5.31
2019-02-03T07:30:18.936Z,5.27
2019-02-03T07:31:18.910Z,5.2
2019-02-03T07:32:18.916Z,5.25
2019-02-03T07:33:18.894Z,5.28
2019-02-03T07:34:18.870Z,5.27
2019-02-03T07:35:18.862Z,5.35
2019-02-03T07:36:18.847Z,5.3
2019-02-03T07:37:19.423Z,5.39
2019-02-03T07:38:18.818Z,5.25
2019-02-03T07:39:18.809Z,5.22
2019-02-03T07:40:18.796Z,5.31
2019-02-03T07:41:18.793Z,5.27
2019-02-03T07:42:18.759Z,5.28
2019-02-03T07:43:18.756Z,5.31
2019-02-03T07:44:18.740Z,5.31
2019-02-03T07:45:19.236Z,5.27
2019-02-03T07:46:18.700Z,5.28
2019-02-03T07:47:18.685Z,5.21
2019-02-03T07:48:18.675Z,5.31
2019-02-03T07:49:18.656Z,5.35
2019-02-03T07:50:18.649Z,5.3
2019-02-03T07:51:18.629Z,5.33
2019-02-03T07:52:18.617Z,5.4
2019-02-03T07:53:19.401Z,5.4
2019-02-03T07:54:18.594Z,5.38
2019-02-03T07:55:18.578Z,5.46
2019-02-03T07:56:18.565Z,5.43
2019-02-03T07:57:18.307Z,5.42
2019-02-03T07:58:18.531Z,5.4
2019-02-03T07:59:18.513Z,5.4
2019-02-03T08:00:18.631Z,5.45
2019-02-03T08:01:19.011Z,5.33
2019-02-03T08:02:18.482Z,5.3
2019-02-03T08:03:18.459Z,5.31
2019-02-03T08:04:18.467Z,5.24
2019-02-03T08:05:18.429Z,5.28
2019-02-03T08:06:18.425Z,5.27
2019-02-03T08:07:18.400Z,5.22
2019-02-03T08:08:18.395Z,5.17
2019-02-03T08:09:18.555Z,5.17
2019-02-03T08:10:32.122Z,5.22
2019-02-03T08:11:18.343Z,5.24
2019-02-03T08:12:18.102Z,5.2
2019-02-03T08:13:18.315Z,5.31
2019-02-03T08:14:18.303Z,5.24
2019-02-03T08:15:18.280Z,5.21
2019-02-03T08:16:18.035Z,5.25
2019-02-03T08:17:18.540Z,5.06
2019-02-03T08:18:18.256Z,4.94
2019-02-03T08:19:18.222Z,4.94
2019-02-03T08:20:18.238Z,4.89
2019-02-03T08:21:18.196Z,4.7
2019-02-03T08:22:18.191Z,4.66
2019-02-03T08:23:18.188Z,4.7
2019-02-03T08:24:18.159Z,4.66
2019-02-03T08:25:18.498Z,4.65
2019-02-03T08:26:18.132Z,4.55
2019-02-03T08:27:18.115Z,4.48
2019-02-03T08:28:18.097Z,4.54
2019-02-03T08:29:19.680Z,4.44
2019-02-03T08:30:18.083Z,4.41
2019-02-03T08:31:18.085Z,4.34
2019-02-03T08:32:18.283Z,4.36
2019-02-03T08:33:18.027Z,4.34
2019-02-03T08:34:18.100Z,4.37
2019-02-03T08:35:19.944Z,4.26
2019-02-03T08:36:17.993Z,4.26
2019-02-03T08:37:17.970Z,4.24
2019-02-03T08:38:17.958Z,4.24
2019-02-03T08:39:17.975Z,4.29
2019-02-03T08:40:18.204Z,4.26
2019-02-03T08:41:17.917Z,4.22
2019-02-03T08:42:17.893Z,4.24
2019-02-03T08:43:17.892Z,4.18
2019-02-03T08:44:17.886Z,4.05
2019-02-03T08:45:17.875Z,4.09
2019-02-03T08:46:17.839Z,4.15
2019-02-03T08:47:17.826Z,4.06
2019-02-03T08:48:17.850Z,4.04
2019-02-03T08:49:17.786Z,4.06
2019-02-03T08:50:17.774Z,4
2019-02-03T08:51:17.771Z,3.94
2019-02-03T08:52:17.763Z,3.96
2019-02-03T08:53:17.737Z,3.88
2019-02-03T08:54:17.718Z,3.91
2019-02-03T08:55:17.707Z,3.88
2019-02-03T08:56:17.884Z,3.96
2019-02-03T08:57:17.671Z,3.88
2019-02-03T08:58:17.655Z,3.88
2019-02-03T08:59:17.653Z,4
2019-02-03T09:00:17.638Z,3.91
2019-02-03T09:01:17.613Z,3.94
2019-02-03T09:02:17.612Z,3.93
2019-02-03T09:03:17.596Z,4
2019-02-03T09:04:17.629Z,4.08
2019-02-03T09:05:18.041Z,4.09
2019-02-03T09:06:17.540Z,4.15
2019-02-03T09:07:17.539Z,4.14
2019-02-03T09:08:17.525Z,4.27
2019-02-03T09:09:17.506Z,4.26
2019-02-03T09:10:17.472Z,4.27
2019-02-03T09:11:17.464Z,4.29
2019-02-03T09:12:20.563Z,4.36
2019-02-03T09:13:17.701Z,4.32
2019-02-03T09:14:17.421Z,4.4
2019-02-03T09:15:19.516Z,4.4
2019-02-03T09:16:17.385Z,4.42
2019-02-03T09:17:17.376Z,4.42
2019-02-03T09:18:17.372Z,4.48
2019-02-03T09:19:17.356Z,4.48
2019-02-03T09:20:17.549Z,4.58
2019-02-03T09:21:17.347Z,4.47
2019-02-03T09:22:17.317Z,4.5
2019-02-03T09:23:17.299Z,4.63
2019-02-03T09:24:17.339Z,4.58
2019-02-03T09:25:17.262Z,4.58
2019-02-03T09:26:17.238Z,4.51
2019-02-03T09:27:17.276Z,4.54
2019-02-03T09:28:17.379Z,4.55
2019-02-03T09:29:17.596Z,4.5
2019-02-03T09:30:17.181Z,4.51
2019-02-03T09:31:17.164Z,4.47
2019-02-03T09:32:17.157Z,4.44
2019-02-03T09:33:17.135Z,4.34
2019-02-03T09:34:17.125Z,4.41
2019-02-03T09:35:17.106Z,4.33
2019-02-03T09:36:17.221Z,4.36
2019-02-03T09:37:17.179Z,4.36
2019-02-03T09:38:17.066Z,4.3
2019-02-03T09:39:17.051Z,4.29
2019-02-03T09:40:17.038Z,4.24
2019-02-03T09:41:17.025Z,4.14
2019-02-03T09:42:17.001Z,4.11
2019-02-03T09:43:16.990Z,4.15
2019-02-03T09:44:17.180Z,4.09
2019-02-03T09:45:16.962Z,4.09
2019-02-03T09:46:16.951Z,4
2019-02-03T09:47:16.940Z,4.02
2019-02-03T09:48:16.911Z,4.04
2019-02-03T09:49:16.899Z,4
2019-02-03T09:50:16.882Z,4.09
2019-02-03T09:51:16.866Z,4.04
2019-02-03T09:52:17.010Z,4.04
2019-02-03T09:53:16.845Z,4.04
2019-02-03T09:54:16.846Z,3.93
2019-02-03T09:55:16.574Z,3.96
2019-02-03T09:56:16.798Z,3.94
2019-02-03T09:57:16.791Z,3.84
2019-02-03T09:58:16.889Z,3.84
2019-02-03T09:59:16.747Z,3.84
2019-02-03T10:00:17.273Z,3.8
2019-02-03T10:01:16.740Z,3.8
2019-02-03T10:02:16.705Z,3.83
2019-02-03T10:03:16.695Z,3.8
2019-02-03T10:04:16.675Z,3.75
2019-02-03T10:05:16.660Z,3.72
2019-02-03T10:06:16.658Z,3.78
2019-02-03T10:07:16.629Z,3.75
2019-02-03T10:08:18.494Z,3.86
2019-02-03T10:09:16.594Z,3.88
2019-02-03T10:10:16.593Z,3.9
2019-02-03T10:11:17.246Z,4.02
2019-02-03T10:12:16.558Z,4
2019-02-03T10:13:16.709Z,4.05
2019-02-03T10:14:16.535Z,4.06
2019-02-03T10:15:16.517Z,4.05
2019-02-03T10:16:16.932Z,4.14
2019-02-03T10:17:16.485Z,4.12
2019-02-03T10:18:16.479Z,3.98
2019-02-03T10:19:16.460Z,4.06
2019-02-03T10:20:16.432Z,3.93
2019-02-03T10:21:16.417Z,3.94
2019-02-03T10:22:16.413Z,3.93
2019-02-03T10:23:16.388Z,3.94
2019-02-03T10:24:16.599Z,3.88
2019-02-03T10:25:16.363Z,3.91
2019-02-03T10:26:16.351Z,3.96
2019-02-03T10:27:16.332Z,3.88
2019-02-03T10:28:16.314Z,3.97
2019-02-03T10:29:16.305Z,3.96
2019-02-03T10:30:16.286Z,3.96
2019-02-03T10:31:16.264Z,3.94
2019-02-03T10:32:16.450Z,4.02
2019-02-03T10:33:16.365Z,3.94
2019-02-03T10:34:16.233Z,3.93
2019-02-03T10:35:27.818Z,4
2019-02-03T10:36:16.340Z,4.08
2019-02-03T10:37:16.182Z,3.97
2019-02-03T10:38:16.300Z,4.04
2019-02-03T10:39:16.150Z,4.14
2019-02-03T10:40:16.491Z,4.09
2019-02-03T10:41:28.439Z,4.09
2019-02-03T10:42:16.106Z,4.09
2019-02-03T10:43:16.097Z,4.14
2019-02-03T10:44:16.076Z,4.11
2019-02-03T10:45:16.060Z,3.96
2019-02-03T10:46:16.043Z,4.06
2019-02-03T10:47:16.028Z,4.11
2019-02-03T10:48:16.326Z,4.12
2019-02-03T10:49:16.003Z,4.11
2019-02-03T10:50:15.991Z,4.05
2019-02-03T10:51:16.064Z,4.09
2019-02-03T10:52:15.953Z,4.22
2019-02-03T10:53:15.946Z,4.29
2019-02-03T10:54:15.923Z,4.32
2019-02-03T10:55:16.037Z,4.29
2019-02-03T10:56:16.110Z,4.32
2019-02-03T10:57:15.900Z,4.33
2019-02-03T10:58:15.880Z,4.23
2019-02-03T10:59:15.858Z,4.29
2019-02-03T11:00:22.802Z,4.26
2019-02-03T11:01:15.843Z,4.3
2019-02-03T11:02:15.822Z,4.29
2019-02-03T11:03:16.112Z,4.3
2019-02-03T11:04:15.793Z,4.36
2019-02-03T11:05:15.791Z,4.3
2019-02-03T11:06:15.755Z,4.33
2019-02-03T11:07:15.749Z,4.36
2019-02-03T11:08:15.730Z,4.44
2019-02-03T11:09:15.714Z,4.48
2019-02-03T11:10:15.708Z,4.51
2019-02-03T11:11:18.732Z,4.47
2019-02-03T11:12:15.666Z,4.5
2019-02-03T11:13:15.671Z,4.45
2019-02-03T11:14:15.658Z,4.47
2019-02-03T11:15:15.634Z,4.44
2019-02-03T11:16:15.634Z,4.41
2019-02-03T11:17:15.616Z,4.36
2019-02-03T11:18:15.587Z,4.34
2019-02-03T11:19:15.916Z,4.34
2019-02-03T11:20:18.212Z,4.27
2019-02-03T11:21:15.548Z,4.24
2019-02-03T11:22:15.550Z,4.27
2019-02-03T11:23:15.522Z,4.26
2019-02-03T11:24:15.539Z,4.26
2019-02-03T11:25:15.487Z,4.14
2019-02-03T11:26:15.812Z,4.05
2019-02-03T11:27:15.457Z,4.12
2019-02-03T11:28:15.463Z,3.96
2019-02-03T11:29:15.445Z,4.14
2019-02-03T11:30:15.423Z,4.11
2019-02-03T11:31:15.406Z,4
2019-02-03T11:32:15.393Z,3.91
2019-02-03T11:33:15.367Z,3.97
2019-02-03T11:34:15.759Z,3.96
2019-02-03T11:35:15.364Z,3.87
2019-02-03T11:36:15.346Z,3.78
2019-02-03T11:37:15.300Z,3.78
2019-02-03T11:38:15.306Z,3.78
2019-02-03T11:39:15.274Z,3.87
2019-02-03T11:40:15.253Z,3.72
2019-02-03T11:41:15.767Z,3.79
2019-02-03T11:42:15.232Z,3.87
2019-02-03T11:43:15.218Z,3.91
2019-02-03T11:44:15.206Z,3.94
2019-02-03T11:45:15.189Z,3.96
2019-02-03T11:46:15.171Z,3.93
2019-02-03T11:47:15.160Z,3.98
2019-02-03T11:48:15.149Z,4.04
2019-02-03T11:49:15.565Z,4.09
2019-02-03T11:50:15.111Z,4.08
2019-02-03T11:51:15.121Z,4.11
2019-02-03T11:52:15.077Z,4.16
2019-02-03T11:53:15.072Z,4.11
2019-02-03T11:54:15.042Z,4.12
2019-02-03T11:55:15.026Z,4.15
2019-02-03T11:56:15.025Z,4.22
2019-02-03T11:57:15.425Z,4.12
2019-02-03T11:58:14.986Z,4.18
2019-02-03T11:59:14.960Z,4.14
2019-02-03T12:00:14.955Z,4.26
2019-02-03T12:01:16.577Z,4.32
2019-02-03T12:02:14.920Z,4.27
2019-02-03T12:03:14.914Z,4.36
2019-02-03T12:04:14.887Z,4.29
2019-02-03T12:05:15.212Z,4.27
2019-02-03T12:06:14.858Z,4.23
2019-02-03T12:07:14.842Z,4.16
2019-02-03T12:08:14.837Z,4.29
2019-02-03T12:09:14.824Z,4.26
2019-02-03T12:10:14.792Z,4.27
2019-02-03T12:11:14.916Z,4.22
2019-02-03T12:12:14.767Z,4.22
2019-02-03T12:13:14.754Z,4.23
2019-02-03T12:14:15.039Z,4.23
2019-02-03T12:15:14.740Z,4.26
2019-02-03T12:16:14.706Z,4.18
2019-02-03T12:17:14.825Z,4.14
2019-02-03T12:18:14.686Z,4.14
2019-02-03T12:19:14.661Z,4.06
2019-02-03T12:20:14.667Z,4.18
2019-02-03T12:21:14.634Z,4.09
2019-02-03T12:22:15.087Z,4.06
2019-02-03T12:23:14.598Z,4.08
2019-02-03T12:24:14.601Z,4.06
2019-02-03T12:25:14.572Z,4.09
2019-02-03T12:26:14.559Z,3.98
2019-02-03T12:27:14.546Z,3.98
2019-02-03T12:28:14.554Z,4.09
2019-02-03T12:29:14.521Z,4.09
2019-02-03T12:30:14.971Z,4.05
2019-02-03T12:31:14.485Z,4.2
2019-02-03T12:32:14.475Z,4.12
2019-02-03T12:33:14.453Z,4.15
2019-02-03T12:34:14.437Z,4.16
2019-02-03T12:35:14.421Z,4.2
2019-02-03T12:36:14.416Z,4.26
2019-02-03T12:37:14.398Z,4.15
2019-02-03T12:38:14.846Z,4.2
2019-02-03T12:39:14.364Z,4.15
2019-02-03T12:40:14.355Z,4.2
2019-02-03T12:41:14.334Z,4.23
2019-02-03T12:42:18.274Z,4.14
2019-02-03T12:43:14.301Z,4.14
2019-02-03T12:44:14.293Z,4.18
2019-02-03T12:45:14.272Z,4.12
2019-02-03T12:46:14.455Z,4.12
2019-02-03T12:47:14.251Z,4.09
2019-02-03T12:48:13.996Z,4.12
2019-02-03T12:49:14.213Z,4.09
2019-02-03T12:50:14.200Z,4.09
2019-02-03T12:51:14.194Z,4.04
2019-02-03T12:52:14.169Z,4.08
2019-02-03T12:53:14.180Z,3.93
2019-02-03T12:54:14.277Z,3.96
2019-02-03T12:55:14.472Z,4
2019-02-03T12:56:14.116Z,3.87
2019-02-03T12:57:14.102Z,3.76
2019-02-03T12:58:14.108Z,3.76
2019-02-03T12:59:14.101Z,3.73
2019-02-03T13:00:14.060Z,3.65
2019-02-03T13:01:14.047Z,3.65
2019-02-03T13:02:14.636Z,3.66
2019-02-03T13:03:14.013Z,3.76
2019-02-03T13:04:14.001Z,3.69
2019-02-03T13:05:14.289Z,3.76
2019-02-03T13:06:13.963Z,3.76
2019-02-03T13:07:13.946Z,3.66
2019-02-03T13:08:13.934Z,3.6
2019-02-03T13:09:13.927Z,3.58
2019-02-03T13:10:21.251Z,3.55
2019-02-03T13:11:13.889Z,3.54
2019-02-03T13:12:24.383Z,3.66
2019-02-03T13:13:13.857Z,3.57
2019-02-03T13:14:13.845Z,3.5
2019-02-03T13:15:13.830Z,3.45
2019-02-03T13:16:13.818Z,3.45
2019-02-03T13:17:13.810Z,3.35
2019-02-03T13:18:14.075Z,3.42
2019-02-03T13:19:15.676Z,3.36
2019-02-03T13:20:13.758Z,3.36
2019-02-03T13:21:13.758Z,3.42
2019-02-03T13:22:13.729Z,3.31
2019-02-03T13:23:13.717Z,3.47